createdAt,value
2018-09-23T00:00:36.861Z,20.87
2018-09-23T00:01:37.011Z,20.86
2018-09-23T00:02:37.016Z,20.86
2018-09-23T00:03:36.780Z,20.87
2018-09-23T00:04:36.888Z,20.86
2018-09-23T00:05:36.854Z,20.85
2018-09-23T00:06:36.698Z,20.85
2018-09-23T00:07:36.832Z,20.85
2018-09-23T00:08:37.050Z,20.84
2018-09-23T00:09:36.728Z,20.84
2018-09-23T00:10:36.826Z,20.86
2018-09-23T00:11:36.837Z,20.86
2018-09-23T00:12:36.800Z,20.86
2018-09-23T00:13:36.778Z,20.86
2018-09-23T00:14:36.551Z,20.86
2018-09-23T00:15:36.672Z,20.87
2018-09-23T00:16:36.787Z,20.86
2018-09-23T00:17:37.079Z,20.86
2018-09-23T00:18:36.635Z,20.85
2018-09-23T00:19:36.737Z,20.83
2018-09-23T00:20:36.906Z,20.85
2018-09-23T00:21:36.836Z,20.84
2018-09-23T00:22:36.684Z,20.85
2018-09-23T00:23:37.765Z,20.86
2018-09-23T00:24:36.960Z,20.85
2018-09-23T00:25:36.839Z,20.83
2018-09-23T00:26:36.700Z,20.85
2018-09-23T00:27:36.776Z,20.85
2018-09-23T00:28:36.979Z,20.84
2018-09-23T00:29:36.580Z,20.84
2018-09-23T00:30:36.977Z,20.84
2018-09-23T00:31:36.777Z,20.85
2018-09-23T00:32:36.652Z,20.84
2018-09-23T00:33:36.841Z,20.85
2018-09-23T00:34:36.802Z,20.83
2018-09-23T00:35:36.793Z,20.85
2018-09-23T00:36:36.662Z,20.85
2018-09-23T00:37:36.750Z,20.83
2018-09-23T00:38:36.877Z,20.83
2018-09-23T00:39:36.894Z,20.85
2018-09-23T00:40:36.869Z,20.84
2018-09-23T00:41:36.933Z,20.84
2018-09-23T00:42:36.616Z,20.82
2018-09-23T00:43:36.938Z,20.84
2018-09-23T00:44:37.141Z,20.83
2018-09-23T00:45:37.167Z,20.84
2018-09-23T00:46:36.679Z,20.84
2018-09-23T00:47:36.609Z,20.83
2018-09-23T00:48:36.804Z,20.82
2018-09-23T00:49:36.741Z,20.82
2018-09-23T00:50:37.029Z,20.83
2018-09-23T00:51:36.676Z,20.84
2018-09-23T00:52:36.843Z,20.84
2018-09-23T00:53:36.943Z,20.83
2018-09-23T00:54:37.068Z,20.83
2018-09-23T00:55:36.860Z,20.84
2018-09-23T00:56:36.743Z,20.84
2018-09-23T00:57:36.985Z,20.82
2018-09-23T00:58:36.667Z,20.82
2018-09-23T00:59:36.707Z,20.84
2018-09-23T01:00:36.754Z,20.82
2018-09-23T01:01:36.637Z,20.83
2018-09-23T01:02:36.601Z,20.81
2018-09-23T01:03:36.818Z,20.8
2018-09-23T01:04:36.734Z,20.82
2018-09-23T01:05:36.753Z,20.82
2018-09-23T01:06:36.721Z,20.82
2018-09-23T01:07:36.761Z,20.83
2018-09-23T01:08:36.944Z,20.81
2018-09-23T01:09:36.842Z,20.83
2018-09-23T01:10:36.610Z,20.83
2018-09-23T01:11:36.917Z,20.82
2018-09-23T01:12:36.754Z,20.82
2018-09-23T01:13:36.711Z,20.81
2018-09-23T01:14:36.624Z,20.82
2018-09-23T01:15:36.888Z,20.82
2018-09-23T01:16:36.780Z,20.81
2018-09-23T01:17:36.883Z,20.81
2018-09-23T01:18:36.705Z,20.81
2018-09-23T01:19:36.606Z,20.81
2018-09-23T01:20:36.675Z,20.81
2018-09-23T01:21:37.260Z,20.82
2018-09-23T01:22:36.943Z,20.81
2018-09-23T01:23:36.965Z,20.82
2018-09-23T01:24:36.604Z,20.83
2018-09-23T01:25:37.075Z,20.82
2018-09-23T01:26:36.682Z,20.82
2018-09-23T01:27:36.715Z,20.8
2018-09-23T01:28:36.814Z,20.83
2018-09-23T01:29:37.022Z,20.81
2018-09-23T01:30:37.017Z,20.81
2018-09-23T01:31:36.648Z,20.82
2018-09-23T01:32:36.606Z,20.81
2018-09-23T01:33:36.690Z,20.82
2018-09-23T01:34:36.806Z,20.82
2018-09-23T01:35:36.571Z,20.81
2018-09-23T01:36:36.839Z,20.8
2018-09-23T01:37:36.742Z,20.79
2018-09-23T01:38:36.953Z,20.81
2018-09-23T01:39:37.063Z,20.8
2018-09-23T01:40:36.890Z,20.8
2018-09-23T01:41:36.617Z,20.82
2018-09-23T01:42:36.746Z,20.82
2018-09-23T01:43:36.892Z,20.82
2018-09-23T01:44:36.790Z,20.81
2018-09-23T01:45:36.847Z,20.82
2018-09-23T01:46:37.031Z,20.81
2018-09-23T01:47:36.751Z,20.82
2018-09-23T01:48:36.924Z,20.82
2018-09-23T01:49:36.662Z,20.81
2018-09-23T01:50:36.726Z,20.81
2018-09-23T01:51:36.729Z,20.8
2018-09-23T01:52:36.743Z,20.82
2018-09-23T01:53:36.760Z,20.8
2018-09-23T01:54:36.956Z,20.79
2018-09-23T01:55:36.718Z,20.81
2018-09-23T01:56:36.775Z,20.82
2018-09-23T01:57:36.677Z,20.81
2018-09-23T01:58:36.666Z,20.8
2018-09-23T01:59:36.898Z,20.81
2018-09-23T02:00:36.737Z,20.81
2018-09-23T02:01:36.636Z,20.8
2018-09-23T02:02:36.641Z,20.8
2018-09-23T02:03:36.738Z,20.8
2018-09-23T02:04:37.139Z,20.79
2018-09-23T02:05:36.599Z,20.79
2018-09-23T02:06:36.774Z,20.8
2018-09-23T02:07:36.808Z,20.79
2018-09-23T02:08:36.878Z,20.8
2018-09-23T02:09:36.949Z,20.8
2018-09-23T02:10:36.778Z,20.8
2018-09-23T02:11:36.584Z,20.81
2018-09-23T02:12:36.686Z,20.8
2018-09-23T02:13:37.143Z,20.78
2018-09-23T02:14:36.550Z,20.78
2018-09-23T02:15:36.961Z,20.79
2018-09-23T02:16:36.840Z,20.78
2018-09-23T02:17:36.823Z,20.78
2018-09-23T02:18:36.632Z,20.77
2018-09-23T02:19:36.739Z,20.76
2018-09-23T02:20:36.626Z,20.78
2018-09-23T02:21:36.905Z,20.78
2018-09-23T02:22:36.959Z,20.79
2018-09-23T02:23:36.596Z,20.78
2018-09-23T02:24:37.519Z,20.78
2018-09-23T02:25:36.779Z,20.78
2018-09-23T02:26:36.796Z,20.79
2018-09-23T02:27:36.900Z,20.78
2018-09-23T02:28:37.001Z,20.78
2018-09-23T02:29:36.704Z,20.77
2018-09-23T02:30:36.827Z,20.78
2018-09-23T02:31:37.085Z,20.78
2018-09-23T02:32:36.724Z,20.78
2018-09-23T02:33:37.133Z,20.78
2018-09-23T02:34:36.912Z,20.78
2018-09-23T02:35:36.898Z,20.78
2018-09-23T02:36:36.956Z,20.78
2018-09-23T02:37:36.726Z,20.78
2018-09-23T02:38:37.059Z,20.78
2018-09-23T02:39:36.818Z,20.78
2018-09-23T02:40:36.803Z,20.77
2018-09-23T02:41:36.864Z,20.77
2018-09-23T02:42:36.748Z,20.77
2018-09-23T02:43:36.652Z,20.77
2018-09-23T02:44:36.790Z,20.77
2018-09-23T02:45:36.722Z,20.77
2018-09-23T02:46:36.911Z,20.76
2018-09-23T02:47:36.728Z,20.75
2018-09-23T02:48:36.835Z,20.77
2018-09-23T02:49:36.852Z,20.76
2018-09-23T02:50:36.688Z,20.75
2018-09-23T02:51:36.727Z,20.78
2018-09-23T02:52:36.975Z,20.77
2018-09-23T02:53:36.940Z,20.76
2018-09-23T02:54:36.771Z,20.78
2018-09-23T02:55:36.754Z,20.77
2018-09-23T02:56:36.671Z,20.77
2018-09-23T02:57:36.692Z,20.76
2018-09-23T02:58:36.773Z,20.78
2018-09-23T02:59:37.135Z,20.77
2018-09-23T03:00:36.923Z,20.77
2018-09-23T03:01:36.972Z,20.77
2018-09-23T03:02:36.698Z,20.78
2018-09-23T03:03:36.909Z,20.78
2018-09-23T03:04:36.659Z,20.76
2018-09-23T03:05:36.744Z,20.76
2018-09-23T03:06:36.657Z,20.74
2018-09-23T03:07:36.866Z,20.75
2018-09-23T03:08:36.978Z,20.75
2018-09-23T03:09:36.670Z,20.75
2018-09-23T03:10:36.669Z,20.77
2018-09-23T03:11:37.082Z,20.78
2018-09-23T03:12:36.743Z,20.77
2018-09-23T03:13:36.780Z,20.74
2018-09-23T03:14:36.851Z,20.77
2018-09-23T03:15:37.029Z,20.75
2018-09-23T03:16:36.821Z,20.75
2018-09-23T03:17:36.581Z,20.76
2018-09-23T03:18:36.953Z,20.75
2018-09-23T03:19:36.804Z,20.74
2018-09-23T03:20:36.621Z,20.75
2018-09-23T03:21:36.570Z,20.75
2018-09-23T03:22:36.802Z,20.74
2018-09-23T03:23:36.903Z,20.76
2018-09-23T03:24:36.614Z,20.76
2018-09-23T03:25:36.600Z,20.75
2018-09-23T03:26:36.836Z,20.77
2018-09-23T03:27:36.847Z,20.76
2018-09-23T03:28:36.779Z,20.75
2018-09-23T03:29:36.795Z,20.75
2018-09-23T03:30:36.757Z,20.74
2018-09-23T03:31:36.782Z,20.76
2018-09-23T03:32:36.901Z,20.76
2018-09-23T03:33:36.750Z,20.75
2018-09-23T03:34:36.819Z,20.74
2018-09-23T03:35:36.938Z,20.73
2018-09-23T03:36:36.769Z,20.72
2018-09-23T03:37:36.752Z,20.74
2018-09-23T03:38:36.799Z,20.73
2018-09-23T03:39:36.991Z,20.74
2018-09-23T03:40:37.276Z,20.72
2018-09-23T03:41:37.041Z,20.73
2018-09-23T03:42:36.906Z,20.73
2018-09-23T03:43:36.828Z,20.73
2018-09-23T03:44:36.928Z,20.74
2018-09-23T03:45:36.753Z,20.74
2018-09-23T03:46:36.825Z,20.74
2018-09-23T03:47:36.794Z,20.73
2018-09-23T03:48:36.743Z,20.73
2018-09-23T03:49:36.791Z,20.73
2018-09-23T03:50:36.935Z,20.75
2018-09-23T03:51:36.758Z,20.74
2018-09-23T03:52:36.985Z,20.75
2018-09-23T03:53:36.915Z,20.74
2018-09-23T03:54:36.724Z,20.72
2018-09-23T03:55:37.161Z,20.74
2018-09-23T03:56:36.878Z,20.74
2018-09-23T03:57:36.685Z,20.73
2018-09-23T03:58:36.767Z,20.73
2018-09-23T03:59:36.919Z,20.73
2018-09-23T04:00:36.662Z,20.74
2018-09-23T04:01:36.745Z,20.73
2018-09-23T04:02:36.975Z,20.73
2018-09-23T04:03:36.867Z,20.74
2018-09-23T04:04:36.779Z,20.73
2018-09-23T04:05:36.710Z,20.72
2018-09-23T04:06:36.942Z,20.72
2018-09-23T04:08:36.834Z,20.74
2018-09-23T04:09:37.103Z,20.74
2018-09-23T04:10:36.568Z,20.73
2018-09-23T04:11:36.561Z,20.74
2018-09-23T04:12:36.830Z,20.73
2018-09-23T04:13:37.168Z,20.75
2018-09-23T04:14:36.656Z,20.74
2018-09-23T04:15:36.669Z,20.74
2018-09-23T04:16:36.645Z,20.74
2018-09-23T04:17:36.995Z,20.74
2018-09-23T04:18:36.580Z,20.75
2018-09-23T04:19:36.927Z,20.73
2018-09-23T04:20:36.625Z,20.74
2018-09-23T04:21:36.646Z,20.74
2018-09-23T04:22:36.689Z,20.75
2018-09-23T04:23:36.533Z,20.74
2018-09-23T04:24:36.747Z,20.74
2018-09-23T04:25:36.733Z,20.73
2018-09-23T04:26:37.070Z,20.74
2018-09-23T04:27:36.628Z,20.75
2018-09-23T04:28:36.831Z,20.78
2018-09-23T04:29:36.835Z,20.77
2018-09-23T04:30:36.681Z,20.77
2018-09-23T04:31:38.256Z,20.78
2018-09-23T04:32:36.564Z,20.76
2018-09-23T04:33:36.615Z,20.77
2018-09-23T04:34:36.718Z,20.76
2018-09-23T04:35:36.656Z,20.77
2018-09-23T04:36:36.604Z,20.77
2018-09-23T04:37:36.693Z,20.78
2018-09-23T04:38:36.668Z,20.78
2018-09-23T04:39:36.622Z,20.77
2018-09-23T04:40:36.631Z,20.77
2018-09-23T04:41:36.868Z,20.78
2018-09-23T04:42:36.694Z,20.77
2018-09-23T04:43:36.723Z,20.76
2018-09-23T04:44:36.771Z,20.76
2018-09-23T04:45:36.963Z,20.77
2018-09-23T04:46:39.021Z,20.76
2018-09-23T04:47:36.541Z,20.78
2018-09-23T04:48:36.513Z,20.78
2018-09-23T04:49:37.611Z,20.76
2018-09-23T04:50:36.883Z,20.76
2018-09-23T04:51:36.575Z,20.78
2018-09-23T04:52:36.706Z,20.78
2018-09-23T04:53:36.600Z,20.78
2018-09-23T04:54:36.711Z,20.79
2018-09-23T04:55:36.641Z,20.79
2018-09-23T04:56:36.560Z,20.77
2018-09-23T04:57:36.523Z,20.78
2018-09-23T04:59:38.209Z,20.8
2018-09-23T05:00:36.552Z,20.78
2018-09-23T05:01:36.860Z,20.79
2018-09-23T05:02:36.968Z,20.77
2018-09-23T05:03:36.569Z,20.76
2018-09-23T05:04:36.793Z,20.77
2018-09-23T05:05:36.750Z,20.77
2018-09-23T05:06:36.607Z,20.8
2018-09-23T05:07:36.628Z,20.79
2018-09-23T05:08:36.912Z,20.78
2018-09-23T05:09:36.623Z,20.79
2018-09-23T05:10:36.822Z,20.79
2018-09-23T05:11:36.633Z,20.79
2018-09-23T05:12:36.647Z,20.79
2018-09-23T05:13:36.759Z,20.8
2018-09-23T05:14:36.500Z,20.79
2018-09-23T05:15:36.732Z,20.79
2018-09-23T05:16:36.592Z,20.78
2018-09-23T05:17:36.643Z,20.78
2018-09-23T05:18:36.827Z,20.78
2018-09-23T05:19:36.842Z,20.78
2018-09-23T05:20:37.102Z,20.79
2018-09-23T05:21:36.722Z,20.8
2018-09-23T05:22:36.638Z,20.77
2018-09-23T05:23:36.728Z,20.77
2018-09-23T05:24:36.736Z,20.77
2018-09-23T05:25:36.531Z,20.79
2018-09-23T05:26:36.800Z,20.77
2018-09-23T05:27:36.486Z,20.78
2018-09-23T05:28:36.697Z,20.78
2018-09-23T05:29:36.504Z,20.78
2018-09-23T05:30:36.609Z,20.79
2018-09-23T05:31:36.705Z,20.79
2018-09-23T05:32:36.924Z,20.78
2018-09-23T05:33:36.611Z,20.78
2018-09-23T05:34:36.609Z,20.77
2018-09-23T05:35:36.511Z,20.78
2018-09-23T05:36:36.613Z,20.79
2018-09-23T05:37:36.551Z,20.79
2018-09-23T05:38:38.573Z,20.78
2018-09-23T05:39:38.297Z,20.78
2018-09-23T05:40:37.137Z,20.79
2018-09-23T05:41:36.649Z,20.78
2018-09-23T05:42:36.645Z,20.78
2018-09-23T05:43:36.749Z,20.78
2018-09-23T05:44:36.831Z,20.77
2018-09-23T05:45:37.009Z,20.78
2018-09-23T05:46:36.828Z,20.79
2018-09-23T05:47:38.499Z,20.79
2018-09-23T05:48:38.522Z,20.78
2018-09-23T05:49:36.806Z,20.78
2018-09-23T05:50:38.647Z,20.78
2018-09-23T05:51:36.654Z,20.79
2018-09-23T05:52:39.805Z,20.77
2018-09-23T05:53:36.749Z,20.79
2018-09-23T05:54:36.643Z,20.77
2018-09-23T05:55:36.638Z,20.78
2018-09-23T05:56:36.856Z,20.79
2018-09-23T05:57:36.650Z,20.79
2018-09-23T05:58:36.503Z,20.79
2018-09-23T05:59:36.576Z,20.78
2018-09-23T06:00:36.718Z,20.79
2018-09-23T06:01:36.788Z,20.78
2018-09-23T06:02:36.475Z,20.79
2018-09-23T06:03:36.675Z,20.79
2018-09-23T06:04:36.814Z,20.78
2018-09-23T06:05:36.613Z,20.79
2018-09-23T06:06:36.634Z,20.78
2018-09-23T06:07:36.517Z,20.79
2018-09-23T06:08:36.544Z,20.79
2018-09-23T06:09:36.587Z,20.8
2018-09-23T06:10:36.437Z,20.78
2018-09-23T06:11:36.713Z,20.79
2018-09-23T06:12:36.518Z,20.78
2018-09-23T06:13:36.507Z,20.79
2018-09-23T06:14:36.658Z,20.78
2018-09-23T06:15:36.530Z,20.79
2018-09-23T06:16:40.398Z,20.8
2018-09-23T06:17:36.672Z,20.81
2018-09-23T06:18:36.617Z,20.8
2018-09-23T06:19:36.653Z,20.8
2018-09-23T06:20:36.661Z,20.82
2018-09-23T06:21:36.668Z,20.79
2018-09-23T06:22:36.495Z,20.79
2018-09-23T06:23:36.745Z,20.79
2018-09-23T06:24:37.203Z,20.79
2018-09-23T06:25:36.852Z,20.78
2018-09-23T06:26:36.599Z,20.79
2018-09-23T06:27:36.802Z,20.79
2018-09-23T06:28:36.708Z,20.78
2018-09-23T06:29:36.767Z,20.79
2018-09-23T06:30:36.592Z,20.78
2018-09-23T06:31:36.591Z,20.8
2018-09-23T06:32:36.774Z,20.79
2018-09-23T06:33:36.734Z,20.8
2018-09-23T06:34:36.926Z,20.78
2018-09-23T06:35:36.454Z,20.79
2018-09-23T06:36:36.763Z,20.8
2018-09-23T06:37:36.731Z,20.8
2018-09-23T06:38:36.686Z,20.78
2018-09-23T06:39:36.498Z,20.79
2018-09-23T06:40:36.897Z,20.79
2018-09-23T06:41:36.981Z,20.81
2018-09-23T06:42:37.006Z,20.8
2018-09-23T06:43:37.403Z,20.79
2018-09-23T06:44:36.698Z,20.8
2018-09-23T06:45:36.719Z,20.8
2018-09-23T06:46:36.803Z,20.79
2018-09-23T06:47:36.627Z,20.8
2018-09-23T06:48:36.626Z,20.79
2018-09-23T06:49:36.566Z,20.79
2018-09-23T06:50:36.639Z,20.8
2018-09-23T06:51:36.674Z,20.79
2018-09-23T06:52:37.378Z,20.8
2018-09-23T06:53:36.559Z,20.79
2018-09-23T06:54:38.190Z,20.8
2018-09-23T06:55:37.460Z,20.8
2018-09-23T06:56:36.652Z,20.79
2018-09-23T06:57:36.763Z,20.81
2018-09-23T06:58:36.785Z,20.79
2018-09-23T07:00:36.643Z,20.8
2018-09-23T07:01:38.076Z,20.79
2018-09-23T07:02:36.816Z,20.79
2018-09-23T07:03:36.728Z,20.77
2018-09-23T07:04:36.962Z,20.79
2018-09-23T07:05:36.906Z,20.79
2018-09-23T07:06:36.970Z,20.78
2018-09-23T07:07:36.997Z,20.79
2018-09-23T07:08:36.653Z,20.79
2018-09-23T07:09:36.807Z,20.8
2018-09-23T07:10:37.701Z,20.8
2018-09-23T07:11:36.692Z,20.81
2018-09-23T07:12:36.824Z,20.79
2018-09-23T07:13:36.599Z,20.79
2018-09-23T07:14:36.721Z,20.8
2018-09-23T07:15:36.518Z,20.8
2018-09-23T07:16:36.581Z,20.8
2018-09-23T07:17:36.649Z,20.8
2018-09-23T07:18:36.650Z,20.81
2018-09-23T07:19:36.744Z,20.8
2018-09-23T07:20:36.883Z,20.78
2018-09-23T07:21:36.500Z,20.79
2018-09-23T07:22:36.718Z,20.78
2018-09-23T07:23:36.701Z,20.79
2018-09-23T07:24:36.637Z,20.79
2018-09-23T07:28:36.691Z,20.79
2018-09-23T07:29:36.855Z,20.79
2018-09-23T07:30:36.653Z,20.79
2018-09-23T07:31:36.627Z,20.8
2018-09-23T07:32:36.613Z,20.79
2018-09-23T07:33:36.687Z,20.81
2018-09-23T07:34:36.670Z,20.79
2018-09-23T07:35:36.497Z,20.79
2018-09-23T07:36:36.590Z,20.8
2018-09-23T07:37:36.505Z,20.79
2018-09-23T07:38:36.765Z,20.81
2018-09-23T07:39:36.676Z,20.81
2018-09-23T07:40:36.721Z,20.8
2018-09-23T07:41:36.517Z,20.79
2018-09-23T07:42:36.724Z,20.79
2018-09-23T07:43:36.595Z,20.81
2018-09-23T07:45:36.633Z,20.79
2018-09-23T07:46:36.669Z,20.79
2018-09-23T07:47:36.762Z,20.81
2018-09-23T07:48:36.767Z,20.78
2018-09-23T07:49:36.843Z,20.79
2018-09-23T07:50:36.477Z,20.81
2018-09-23T07:51:36.869Z,20.81
2018-09-23T07:52:36.768Z,20.79
2018-09-23T07:53:36.568Z,20.79
2018-09-23T07:54:36.674Z,20.8
2018-09-23T07:55:36.925Z,20.81
2018-09-23T07:56:36.818Z,20.8
2018-09-23T07:57:36.751Z,20.82
2018-09-23T07:58:36.683Z,20.8
2018-09-23T07:59:36.706Z,20.79
2018-09-23T08:00:36.673Z,20.8
2018-09-23T08:01:36.841Z,20.79
2018-09-23T08:02:36.801Z,20.79
2018-09-23T08:03:37.083Z,20.8
2018-09-23T08:04:37.129Z,20.78
2018-09-23T08:05:36.554Z,20.79
2018-09-23T08:06:36.705Z,20.78
2018-09-23T08:07:36.719Z,20.8
2018-09-23T08:08:37.249Z,20.79
2018-09-23T08:09:36.723Z,20.79
2018-09-23T08:11:36.708Z,20.81
2018-09-23T08:12:37.081Z,20.79
2018-09-23T08:13:39.165Z,20.8
2018-09-23T08:14:37.129Z,20.79
2018-09-23T08:15:36.737Z,20.82
2018-09-23T08:17:36.958Z,20.79
2018-09-23T08:18:36.636Z,20.81
2018-09-23T08:19:37.026Z,20.81
2018-09-23T08:20:36.840Z,20.81
2018-09-23T08:21:36.612Z,20.81
2018-09-23T08:22:36.706Z,20.81
2018-09-23T08:23:36.602Z,20.82
2018-09-23T08:24:36.739Z,20.81
2018-09-23T08:25:36.877Z,20.8
2018-09-23T08:26:36.802Z,20.81
2018-09-23T08:27:36.719Z,20.81
2018-09-23T08:28:36.795Z,20.81
2018-09-23T08:29:36.797Z,20.81
2018-09-23T08:30:37.904Z,20.81
2018-09-23T08:31:36.402Z,20.8
2018-09-23T08:36:36.637Z,20.88
2018-09-23T08:37:36.797Z,20.9
2018-09-23T08:38:36.921Z,20.91
2018-09-23T08:39:36.702Z,20.9
2018-09-23T08:40:38.199Z,20.9
2018-09-23T08:41:36.649Z,20.9
2018-09-23T08:42:36.480Z,20.91
2018-09-23T08:43:36.866Z,20.9
2018-09-23T08:44:36.986Z,20.92
2018-09-23T08:45:36.447Z,20.96
2018-09-23T08:46:36.681Z,20.96
2018-09-23T08:47:36.758Z,20.98
2018-09-23T08:48:36.477Z,20.96
2018-09-23T08:49:36.762Z,20.98
2018-09-23T08:50:36.737Z,20.97
2018-09-23T08:51:36.632Z,20.96
2018-09-23T08:52:36.907Z,20.96
2018-09-23T08:53:36.843Z,20.97
2018-09-23T08:55:36.817Z,20.97
2018-09-23T08:56:36.886Z,20.96
2018-09-23T08:57:36.735Z,20.99
2018-09-23T08:58:36.540Z,21
2018-09-23T08:59:36.860Z,21
2018-09-23T09:00:28.030Z,21.13
2018-09-23T09:01:27.992Z,21.17
2018-09-23T09:02:28.366Z,21.2
2018-09-23T09:03:28.124Z,21.21
2018-09-23T09:04:28.354Z,21.21
2018-09-23T09:05:28.168Z,21.23
2018-09-23T09:06:28.359Z,21.23
2018-09-23T09:07:28.310Z,21.24
2018-09-23T09:08:28.252Z,21.25
2018-09-23T09:09:28.235Z,21.25
2018-09-23T09:10:28.431Z,21.27
2018-09-23T09:11:28.491Z,21.26
2018-09-23T09:12:31.674Z,21.28
2018-09-23T09:13:31.609Z,21.27
2018-09-23T09:14:31.618Z,21.29
2018-09-23T09:15:31.480Z,21.28
2018-09-23T09:16:31.795Z,21.29
2018-09-23T09:17:31.559Z,21.29
2018-09-23T09:18:32.019Z,21.31
2018-09-23T09:19:31.698Z,21.31
2018-09-23T09:20:31.509Z,21.31
2018-09-23T09:21:31.542Z,21.31
2018-09-23T09:22:31.575Z,21.33
2018-09-23T09:23:31.897Z,21.33
2018-09-23T09:24:31.480Z,21.34
2018-09-23T09:25:31.782Z,21.36
2018-09-23T09:26:31.694Z,21.36
2018-09-23T09:27:31.715Z,21.37
2018-09-23T09:28:31.404Z,21.38
2018-09-23T09:29:31.800Z,21.37
2018-09-23T09:30:31.383Z,21.38
2018-09-23T09:31:31.756Z,21.39
2018-09-23T09:32:31.510Z,21.39
2018-09-23T09:33:31.655Z,21.39
2018-09-23T09:34:31.515Z,21.41
2018-09-23T09:35:38.060Z,21.42
2018-09-23T09:36:38.281Z,21.42
2018-09-23T09:37:38.623Z,21.42
2018-09-23T09:38:38.147Z,21.42
2018-09-23T09:39:37.986Z,21.43
2018-09-23T09:40:38.462Z,21.43
2018-09-23T09:41:38.475Z,21.4
2018-09-23T09:42:38.613Z,21.43
2018-09-23T09:43:38.282Z,21.43
2018-09-23T09:44:38.080Z,21.44
2018-09-23T09:45:38.506Z,21.45
2018-09-23T09:46:38.417Z,21.44
2018-09-23T09:47:38.630Z,21.43
2018-09-23T09:48:37.922Z,21.45
2018-09-23T09:49:38.002Z,21.43
2018-09-23T09:50:38.172Z,21.44
2018-09-23T09:51:38.171Z,21.44
2018-09-23T09:52:38.250Z,21.44
2018-09-23T09:53:38.112Z,21.45
2018-09-23T09:54:38.100Z,21.46
2018-09-23T09:55:38.381Z,21.46
2018-09-23T09:56:38.365Z,21.46
2018-09-23T09:57:39.191Z,21.47
2018-09-23T09:58:38.124Z,21.47
2018-09-23T09:59:38.142Z,21.47
2018-09-23T10:00:38.035Z,21.49
2018-09-23T10:01:38.260Z,21.48
2018-09-23T10:02:38.057Z,21.49
2018-09-23T10:03:38.431Z,21.5
2018-09-23T10:04:38.281Z,21.49
2018-09-23T10:05:37.988Z,21.48
2018-09-23T10:06:38.079Z,21.5
2018-09-23T10:07:38.095Z,21.5
2018-09-23T10:08:38.088Z,21.5
2018-09-23T10:09:38.524Z,21.51
2018-09-23T10:10:38.083Z,21.51
2018-09-23T10:11:38.772Z,21.51
2018-09-23T10:12:37.990Z,21.52
2018-09-23T10:13:38.117Z,21.52
2018-09-23T10:15:43.607Z,21.54
2018-09-23T10:16:31.837Z,21.54
2018-09-23T10:17:29.559Z,21.54
2018-09-23T10:18:38.682Z,21.55
2018-09-23T10:19:38.730Z,21.54
2018-09-23T10:20:38.975Z,21.55
2018-09-23T10:21:38.924Z,21.55
2018-09-23T10:23:15.230Z,21.52
2018-09-23T10:24:14.926Z,21.52
2018-09-23T10:25:15.140Z,21.52
2018-09-23T10:26:07.744Z,21.52
2018-09-23T10:27:08.005Z,21.52
2018-09-23T10:28:07.636Z,21.51
2018-09-23T10:29:07.654Z,21.56
2018-09-23T10:30:08.009Z,21.55
2018-09-23T10:31:07.681Z,21.57
2018-09-23T10:32:07.751Z,21.56
2018-09-23T10:33:07.551Z,21.57
2018-09-23T10:34:07.988Z,21.56
2018-09-23T10:35:07.588Z,21.59
2018-09-23T10:36:07.692Z,21.58
2018-09-23T10:37:07.501Z,21.58
2018-09-23T10:38:07.601Z,21.58
2018-09-23T10:39:07.733Z,21.58
2018-09-23T10:40:07.553Z,21.59
2018-09-23T10:41:07.612Z,21.58
2018-09-23T10:42:07.569Z,21.58
2018-09-23T10:43:07.650Z,21.59
2018-09-23T10:44:07.886Z,21.58
2018-09-23T10:45:07.444Z,21.59
2018-09-23T10:46:07.591Z,21.6
2018-09-23T10:47:07.882Z,21.6
2018-09-23T10:48:07.570Z,21.61
2018-09-23T10:48:54.591Z,21.61
2018-09-23T10:49:44.792Z,21.61
2018-09-23T10:50:44.971Z,21.6
2018-09-23T10:51:44.825Z,21.6
2018-09-23T10:52:44.940Z,21.6
2018-09-23T10:56:08.265Z,21.62
2018-09-23T10:57:02.190Z,21.61
2018-09-23T10:58:02.575Z,21.59
2018-09-23T10:59:02.717Z,21.58
2018-09-23T11:00:02.363Z,21.57
2018-09-23T11:01:02.324Z,21.57
2018-09-23T11:02:02.293Z,21.58
2018-09-23T11:03:13.595Z,21.58
2018-09-23T11:04:14.115Z,21.58
2018-09-23T11:05:14.747Z,21.58
2018-09-23T11:06:13.675Z,21.58
2018-09-23T11:07:13.696Z,21.6
2018-09-23T11:08:13.898Z,21.6
2018-09-23T11:09:13.832Z,21.6
2018-09-23T11:10:14.033Z,21.6
2018-09-23T11:11:13.978Z,21.6
2018-09-23T11:12:14.109Z,21.6
2018-09-23T11:13:33.874Z,21.61
2018-09-23T11:15:03.115Z,21.62
2018-09-23T11:15:31.351Z,21.61
2018-09-23T11:16:31.149Z,21.61
2018-09-23T11:17:31.609Z,21.6
2018-09-23T11:18:31.471Z,21.6
2018-09-23T11:19:30.993Z,21.61
2018-09-23T11:20:31.227Z,21.61
2018-09-23T11:21:31.276Z,21.61
2018-09-23T11:22:31.185Z,21.62
2018-09-23T11:23:31.356Z,21.62
2018-09-23T11:24:54.979Z,21.64
2018-09-23T11:25:54.694Z,21.62
2018-09-23T11:26:37.537Z,21.63
2018-09-23T11:28:04.670Z,21.63
2018-09-23T11:29:24.662Z,21.63
2018-09-23T11:30:24.756Z,21.63
2018-09-23T11:31:48.765Z,21.64
2018-09-23T11:38:52.214Z,21.65
2018-09-23T11:39:53.868Z,21.64
2018-09-23T11:40:53.797Z,21.64
2018-09-23T11:41:53.907Z,21.58
2018-09-23T11:43:11.904Z,21.55
2018-09-23T11:44:11.904Z,21.53
2018-09-23T11:45:12.096Z,21.51
2018-09-23T11:46:11.918Z,21.47
2018-09-23T11:47:12.030Z,21.46
2018-09-23T11:48:11.934Z,21.43
2018-09-23T11:49:12.086Z,21.42
2018-09-23T11:50:12.137Z,21.4
2018-09-23T11:51:11.865Z,21.38
2018-09-23T11:52:11.906Z,21.37
2018-09-23T11:53:11.874Z,21.37
2018-09-23T11:54:11.846Z,21.36
2018-09-23T11:55:12.383Z,21.35
2018-09-23T11:56:12.045Z,21.35
2018-09-23T11:57:12.000Z,21.33
2018-09-23T11:58:11.849Z,21.32
2018-09-23T11:59:12.354Z,21.32
2018-09-23T12:00:11.825Z,21.31
2018-09-23T12:01:12.127Z,21.3
2018-09-23T12:02:12.188Z,21.29
2018-09-23T12:03:11.893Z,21.28
2018-09-23T12:04:11.994Z,21.28
2018-09-23T12:05:11.965Z,21.27
2018-09-23T12:06:11.783Z,21.27
2018-09-23T12:07:12.149Z,21.26
2018-09-23T12:08:12.264Z,21.26
2018-09-23T12:09:11.933Z,21.25
2018-09-23T12:10:12.149Z,21.25
2018-09-23T12:11:12.185Z,21.25
2018-09-23T12:12:12.130Z,21.25
2018-09-23T12:13:12.142Z,21.24
2018-09-23T12:14:11.997Z,21.24
2018-09-23T12:15:12.175Z,21.24
2018-09-23T12:16:11.947Z,21.23
2018-09-23T12:17:12.044Z,21.22
2018-09-23T12:18:11.803Z,21.22
2018-09-23T12:19:11.905Z,21.21
2018-09-23T12:20:11.957Z,21.2
2018-09-23T12:21:11.911Z,21.2
2018-09-23T12:22:12.778Z,21.2
2018-09-23T12:23:12.315Z,21.19
2018-09-23T12:24:11.802Z,21.18
2018-09-23T12:25:12.177Z,21.18
2018-09-23T12:26:12.117Z,21.18
2018-09-23T12:27:12.007Z,21.18
2018-09-23T12:28:12.198Z,21.17
2018-09-23T12:29:12.215Z,21.16
2018-09-23T12:30:12.105Z,21.16
2018-09-23T12:31:12.032Z,21.16
2018-09-23T12:32:12.139Z,21.16
2018-09-23T12:33:12.184Z,21.16
2018-09-23T12:34:12.043Z,21.15
2018-09-23T12:35:11.975Z,21.17
2018-09-23T12:36:12.086Z,21.22
2018-09-23T12:37:12.278Z,21.22
2018-09-23T12:38:11.816Z,21.21
2018-09-23T12:39:12.051Z,21.2
2018-09-23T12:40:12.096Z,21.21
2018-09-23T12:41:11.861Z,21.21
2018-09-23T12:42:12.158Z,21.21
2018-09-23T12:43:12.062Z,21.21
2018-09-23T12:44:12.130Z,21.21
2018-09-23T12:45:11.861Z,21.2
2018-09-23T12:46:12.136Z,21.21
2018-09-23T12:47:12.145Z,21.21
2018-09-23T12:48:11.964Z,21.2
2018-09-23T12:49:11.772Z,21.21
2018-09-23T12:50:11.993Z,21.2
2018-09-23T12:51:12.332Z,21.21
2018-09-23T12:52:11.992Z,21.21
2018-09-23T12:53:11.914Z,21.21
2018-09-23T12:54:11.857Z,21.21
2018-09-23T12:55:11.988Z,21.22
2018-09-23T12:56:12.025Z,21.22
2018-09-23T12:57:11.999Z,21.22
2018-09-23T12:58:11.958Z,21.22
2018-09-23T12:59:12.042Z,21.22
2018-09-23T13:00:11.856Z,21.23
2018-09-23T13:01:11.897Z,21.23
2018-09-23T13:02:11.816Z,21.23
2018-09-23T13:03:13.167Z,21.24
2018-09-23T13:04:11.950Z,21.23
2018-09-23T13:05:12.111Z,21.23
2018-09-23T13:06:11.938Z,21.24
2018-09-23T13:07:11.893Z,21.24
2018-09-23T13:08:11.997Z,21.25
2018-09-23T13:09:11.970Z,21.25
2018-09-23T13:10:12.038Z,21.26
2018-09-23T13:11:11.825Z,21.28
2018-09-23T13:12:12.246Z,21.27
2018-09-23T13:13:11.900Z,21.26
2018-09-23T13:14:12.255Z,21.27
2018-09-23T13:15:11.979Z,21.24
2018-09-23T13:16:11.989Z,21.3
2018-09-23T13:17:12.046Z,21.33
2018-09-23T13:18:12.066Z,21.35
2018-09-23T13:19:12.127Z,21.38
2018-09-23T13:20:12.066Z,21.41
2018-09-23T13:21:12.033Z,21.44